Main page
METAR-TAF:

METAR-TAF

Airports :

Cazaux, France

Cazaux Air Base

latitude: 44-32N, longitude: 001-08W, elevation: 25 m

Current weather observation

The report was made 22 minutes ago, at 07:00 UTC
Wind 2 kt from the Southeast
Temperature 1°C
Humidity 100%
Pressure 1012 hPa
Visibility: 7000 m

METAR: LFBC 220700Z AUTO 13002KT 7000 NSC 01/01 Q1012 NOSIG

Time: 08:22 (07:22 UTC)

Forecast

The report was made 1 hour and 23 minutes ago, at 05:59 UTC
Forecast valid from 22 at 05 UTC to 23 at 03 UTC
Wind 3 kt from the East
Visibility: 4000 m
mist
Becoming
from 22 at 07 UTC to 22 at 08 UTC
Visibility 10 km or more
Becoming
from 22 at 14 UTC to 22 at 18 UTC
Wind 14 kt from the South
Probability 40% :
Temporary
from 23 at 00 UTC to 23 at 03 UTC
Wind 15 kt from the South with gusts up to 25 kt

TAF: LFBC 220559Z 2205/2303 10003KT 4000 BR NSC BECMG 2207/2208 9999 NSW BECMG 2214/2218 18014KT PROB40 TEMPO 2300/2303 18015G25KT

Weather observations and forecasts of more than 4000 airports (METAR and TAF reports).

The available stations are represented by yellow and red dots on the map.

Hover mouse over dot to see the name of the station.

Then click to see weather observations and forecasts.

To change the map : click on the green buttons with a black cross to zoom in, on the green button with a dash to zoom out, or on the green arrows for adjacent maps.


METAR-TAF: